sensor_id;sensor_type;location;lat;lon;timestamp;P1;durP1;ratioP1;P2;durP2;ratioP2
944;SDS011;459;48.676;9.034;2022-08-19T00:02:01;19.00;;;17.10;;
944;SDS011;459;48.676;9.034;2022-08-19T00:04:27;17.57;;;15.97;;
944;SDS011;459;48.676;9.034;2022-08-19T00:06:53;21.90;;;19.70;;
944;SDS011;459;48.676;9.034;2022-08-19T00:09:19;19.27;;;17.57;;
944;SDS011;459;48.676;9.034;2022-08-19T00:11:45;19.70;;;18.10;;
944;SDS011;459;48.676;9.034;2022-08-19T00:14:11;19.43;;;17.53;;
944;SDS011;459;48.676;9.034;2022-08-19T00:16:38;20.93;;;18.97;;
944;SDS011;459;48.676;9.034;2022-08-19T00:19:03;20.73;;;18.73;;
944;SDS011;459;48.676;9.034;2022-08-19T00:21:29;21.43;;;19.17;;
944;SDS011;459;48.676;9.034;2022-08-19T00:23:55;18.07;;;16.30;;
944;SDS011;459;48.676;9.034;2022-08-19T00:26:23;20.83;;;18.90;;
944;SDS011;459;48.676;9.034;2022-08-19T00:28:48;21.40;;;19.20;;
944;SDS011;459;48.676;9.034;2022-08-19T00:31:13;20.50;;;18.50;;
944;SDS011;459;48.676;9.034;2022-08-19T00:33:38;21.43;;;19.33;;
944;SDS011;459;48.676;9.034;2022-08-19T00:36:25;21.70;;;19.63;;
944;SDS011;459;48.676;9.034;2022-08-19T00:38:51;19.57;;;17.80;;
944;SDS011;459;48.676;9.034;2022-08-19T00:41:18;21.03;;;18.83;;
944;SDS011;459;48.676;9.034;2022-08-19T00:46:23;20.73;;;18.73;;
944;SDS011;459;48.676;9.034;2022-08-19T00:48:48;24.60;;;22.10;;
944;SDS011;459;48.676;9.034;2022-08-19T00:51:13;21.40;;;19.40;;
944;SDS011;459;48.676;9.034;2022-08-19T00:53:38;21.90;;;19.80;;
944;SDS011;459;48.676;9.034;2022-08-19T00:56:04;20.43;;;18.20;;
944;SDS011;459;48.676;9.034;2022-08-19T00:58:32;22.90;;;20.60;;
944;SDS011;459;48.676;9.034;2022-08-19T01:00:58;23.27;;;21.07;;
944;SDS011;459;48.676;9.034;2022-08-19T01:03:23;24.20;;;21.73;;
944;SDS011;459;48.676;9.034;2022-08-19T01:05:49;22.70;;;20.60;;
944;SDS011;459;48.676;9.034;2022-08-19T01:08:15;22.20;;;19.97;;
944;SDS011;459;48.676;9.034;2022-08-19T01:10:52;24.50;;;22.20;;
944;SDS011;459;48.676;9.034;2022-08-19T01:13:19;25.47;;;22.97;;
944;SDS011;459;48.676;9.034;2022-08-19T01:15:45;22.40;;;20.30;;
944;SDS011;459;48.676;9.034;2022-08-19T01:18:12;23.13;;;20.73;;
944;SDS011;459;48.676;9.034;2022-08-19T01:20:38;23.20;;;21.00;;
944;SDS011;459;48.676;9.034;2022-08-19T01:23:03;22.33;;;20.10;;
944;SDS011;459;48.676;9.034;2022-08-19T01:25:29;22.10;;;19.90;;
944;SDS011;459;48.676;9.034;2022-08-19T01:27:56;21.73;;;19.63;;
944;SDS011;459;48.676;9.034;2022-08-19T01:30:23;22.87;;;20.87;;
944;SDS011;459;48.676;9.034;2022-08-19T01:32:50;24.10;;;21.57;;
944;SDS011;459;48.676;9.034;2022-08-19T01:35:15;24.20;;;20.37;;
944;SDS011;459;48.676;9.034;2022-08-19T01:37:50;24.33;;;21.97;;
944;SDS011;459;48.676;9.034;2022-08-19T01:40:17;24.80;;;22.40;;
944;SDS011;459;48.676;9.034;2022-08-19T01:42:45;24.90;;;22.60;;
944;SDS011;459;48.676;9.034;2022-08-19T01:45:10;23.70;;;21.40;;
944;SDS011;459;48.676;9.034;2022-08-19T01:47:36;25.67;;;23.13;;
944;SDS011;459;48.676;9.034;2022-08-19T01:50:01;26.53;;;24.13;;
944;SDS011;459;48.676;9.034;2022-08-19T01:52:27;25.70;;;23.20;;
944;SDS011;459;48.676;9.034;2022-08-19T01:54:52;24.73;;;22.33;;
944;SDS011;459;48.676;9.034;2022-08-19T01:57:17;26.00;;;23.30;;
944;SDS011;459;48.676;9.034;2022-08-19T01:59:43;24.53;;;22.27;;
944;SDS011;459;48.676;9.034;2022-08-19T02:02:09;26.30;;;23.77;;
944;SDS011;459;48.676;9.034;2022-08-19T02:04:35;26.43;;;23.70;;
944;SDS011;459;48.676;9.034;2022-08-19T02:07:00;24.57;;;22.17;;
944;SDS011;459;48.676;9.034;2022-08-19T02:09:26;25.43;;;23.03;;
944;SDS011;459;48.676;9.034;2022-08-19T02:11:51;25.77;;;23.20;;
944;SDS011;459;48.676;9.034;2022-08-19T02:14:17;26.33;;;23.60;;
944;SDS011;459;48.676;9.034;2022-08-19T02:16:42;26.87;;;24.17;;
944;SDS011;459;48.676;9.034;2022-08-19T02:19:07;25.30;;;22.87;;
944;SDS011;459;48.676;9.034;2022-08-19T02:21:32;26.10;;;23.50;;
944;SDS011;459;48.676;9.034;2022-08-19T02:23:58;27.63;;;24.70;;
944;SDS011;459;48.676;9.034;2022-08-19T02:26:23;26.43;;;23.80;;
944;SDS011;459;48.676;9.034;2022-08-19T02:28:48;25.90;;;23.60;;
944;SDS011;459;48.676;9.034;2022-08-19T02:31:15;26.43;;;23.77;;
944;SDS011;459;48.676;9.034;2022-08-19T02:33:42;26.20;;;23.70;;
944;SDS011;459;48.676;9.034;2022-08-19T02:36:07;27.93;;;25.00;;
944;SDS011;459;48.676;9.034;2022-08-19T02:38:33;27.80;;;25.10;;
944;SDS011;459;48.676;9.034;2022-08-19T02:41:00;27.27;;;24.47;;
944;SDS011;459;48.676;9.034;2022-08-19T02:43:26;24.43;;;21.83;;
944;SDS011;459;48.676;9.034;2022-08-19T02:45:52;27.10;;;24.30;;
944;SDS011;459;48.676;9.034;2022-08-19T02:48:21;26.53;;;23.90;;
944;SDS011;459;48.676;9.034;2022-08-19T02:50:46;26.43;;;23.93;;
944;SDS011;459;48.676;9.034;2022-08-19T02:53:12;29.23;;;25.93;;
944;SDS011;459;48.676;9.034;2022-08-19T02:55:42;27.67;;;24.77;;
944;SDS011;459;48.676;9.034;2022-08-19T02:58:08;28.50;;;25.80;;
944;SDS011;459;48.676;9.034;2022-08-19T03:00:33;28.10;;;25.30;;
944;SDS011;459;48.676;9.034;2022-08-19T03:02:58;28.40;;;25.60;;
944;SDS011;459;48.676;9.034;2022-08-19T03:05:25;28.53;;;25.80;;
944;SDS011;459;48.676;9.034;2022-08-19T03:07:50;28.20;;;25.40;;
944;SDS011;459;48.676;9.034;2022-08-19T03:10:15;27.00;;;24.20;;
944;SDS011;459;48.676;9.034;2022-08-19T03:12:40;28.77;;;26.17;;
944;SDS011;459;48.676;9.034;2022-08-19T03:15:06;29.20;;;26.30;;
944;SDS011;459;48.676;9.034;2022-08-19T03:17:32;29.83;;;26.77;;
944;SDS011;459;48.676;9.034;2022-08-19T03:19:57;28.90;;;25.87;;
944;SDS011;459;48.676;9.034;2022-08-19T03:22:22;26.93;;;24.33;;
944;SDS011;459;48.676;9.034;2022-08-19T03:24:48;30.57;;;27.57;;
944;SDS011;459;48.676;9.034;2022-08-19T03:27:13;29.67;;;26.97;;
944;SDS011;459;48.676;9.034;2022-08-19T03:29:39;30.40;;;27.40;;
944;SDS011;459;48.676;9.034;2022-08-19T03:32:04;30.67;;;27.50;;
944;SDS011;459;48.676;9.034;2022-08-19T03:34:31;28.83;;;26.37;;
944;SDS011;459;48.676;9.034;2022-08-19T03:36:58;30.40;;;27.40;;
944;SDS011;459;48.676;9.034;2022-08-19T03:39:24;30.50;;;27.67;;
944;SDS011;459;48.676;9.034;2022-08-19T03:41:49;29.30;;;26.50;;
944;SDS011;459;48.676;9.034;2022-08-19T03:44:16;31.83;;;28.83;;
944;SDS011;459;48.676;9.034;2022-08-19T03:46:42;30.93;;;28.10;;
944;SDS011;459;48.676;9.034;2022-08-19T03:49:08;30.37;;;27.40;;
944;SDS011;459;48.676;9.034;2022-08-19T03:51:35;29.57;;;26.53;;
944;SDS011;459;48.676;9.034;2022-08-19T03:54:02;29.70;;;26.80;;
944;SDS011;459;48.676;9.034;2022-08-19T03:56:27;30.70;;;27.47;;
944;SDS011;459;48.676;9.034;2022-08-19T03:58:53;31.37;;;28.23;;
944;SDS011;459;48.676;9.034;2022-08-19T04:01:20;32.30;;;29.00;;
944;SDS011;459;48.676;9.034;2022-08-19T04:03:46;32.83;;;29.43;;
944;SDS011;459;48.676;9.034;2022-08-19T04:08:40;29.50;;;26.53;;
944;SDS011;459;48.676;9.034;2022-08-19T04:11:09;38.60;;;31.03;;
944;SDS011;459;48.676;9.034;2022-08-19T04:13:34;30.90;;;27.90;;
944;SDS011;459;48.676;9.034;2022-08-19T04:16:00;33.63;;;30.27;;
944;SDS011;459;48.676;9.034;2022-08-19T04:18:25;30.13;;;27.30;;
944;SDS011;459;48.676;9.034;2022-08-19T04:20:50;33.70;;;30.20;;
944;SDS011;459;48.676;9.034;2022-08-19T04:23:15;31.27;;;28.27;;
944;SDS011;459;48.676;9.034;2022-08-19T04:25:42;31.57;;;28.53;;
944;SDS011;459;48.676;9.034;2022-08-19T04:28:08;32.73;;;29.43;;
944;SDS011;459;48.676;9.034;2022-08-19T04:30:38;32.23;;;29.10;;
944;SDS011;459;48.676;9.034;2022-08-19T04:33:04;31.37;;;28.37;;
944;SDS011;459;48.676;9.034;2022-08-19T04:35:34;34.73;;;31.20;;
944;SDS011;459;48.676;9.034;2022-08-19T04:37:59;31.00;;;27.73;;
944;SDS011;459;48.676;9.034;2022-08-19T04:40:24;32.17;;;28.97;;
944;SDS011;459;48.676;9.034;2022-08-19T04:43:08;33.70;;;30.37;;
944;SDS011;459;48.676;9.034;2022-08-19T04:45:36;33.50;;;30.20;;
944;SDS011;459;48.676;9.034;2022-08-19T04:48:01;33.10;;;29.70;;
944;SDS011;459;48.676;9.034;2022-08-19T04:50:26;37.30;;;33.60;;
944;SDS011;459;48.676;9.034;2022-08-19T04:52:51;35.10;;;31.63;;
944;SDS011;459;48.676;9.034;2022-08-19T04:55:17;32.93;;;29.67;;
944;SDS011;459;48.676;9.034;2022-08-19T04:57:42;35.60;;;32.00;;
944;SDS011;459;48.676;9.034;2022-08-19T05:00:08;32.60;;;29.37;;
944;SDS011;459;48.676;9.034;2022-08-19T05:02:33;33.23;;;29.97;;
944;SDS011;459;48.676;9.034;2022-08-19T05:04:59;33.00;;;29.50;;
944;SDS011;459;48.676;9.034;2022-08-19T05:07:25;33.27;;;29.83;;
944;SDS011;459;48.676;9.034;2022-08-19T05:09:50;35.87;;;32.07;;
944;SDS011;459;48.676;9.034;2022-08-19T05:12:16;34.97;;;31.47;;
944;SDS011;459;48.676;9.034;2022-08-19T05:14:41;35.30;;;30.97;;
944;SDS011;459;48.676;9.034;2022-08-19T05:17:06;34.87;;;31.40;;
944;SDS011;459;48.676;9.034;2022-08-19T05:19:32;34.70;;;31.40;;
944;SDS011;459;48.676;9.034;2022-08-19T05:22:16;33.67;;;30.27;;
944;SDS011;459;48.676;9.034;2022-08-19T05:25:01;32.30;;;28.90;;
944;SDS011;459;48.676;9.034;2022-08-19T05:27:26;34.67;;;31.20;;
944;SDS011;459;48.676;9.034;2022-08-19T05:29:51;37.77;;;33.80;;
944;SDS011;459;48.676;9.034;2022-08-19T05:32:16;32.27;;;29.17;;
944;SDS011;459;48.676;9.034;2022-08-19T05:34:41;33.67;;;30.17;;
944;SDS011;459;48.676;9.034;2022-08-19T05:37:07;35.63;;;31.83;;
944;SDS011;459;48.676;9.034;2022-08-19T05:39:33;33.33;;;30.03;;
944;SDS011;459;48.676;9.034;2022-08-19T05:41:59;34.27;;;30.87;;
944;SDS011;459;48.676;9.034;2022-08-19T05:44:25;32.83;;;28.50;;
944;SDS011;459;48.676;9.034;2022-08-19T05:46:51;31.37;;;28.17;;
944;SDS011;459;48.676;9.034;2022-08-19T05:49:20;30.77;;;27.60;;
944;SDS011;459;48.676;9.034;2022-08-19T05:51:46;33.73;;;30.33;;
944;SDS011;459;48.676;9.034;2022-08-19T05:54:11;34.60;;;30.97;;
944;SDS011;459;48.676;9.034;2022-08-19T05:56:38;33.00;;;28.97;;
944;SDS011;459;48.676;9.034;2022-08-19T05:59:04;31.80;;;28.30;;
944;SDS011;459;48.676;9.034;2022-08-19T06:01:34;32.67;;;29.20;;
944;SDS011;459;48.676;9.034;2022-08-19T06:04:00;34.63;;;31.10;;
944;SDS011;459;48.676;9.034;2022-08-19T06:06:25;32.23;;;28.93;;
944;SDS011;459;48.676;9.034;2022-08-19T06:08:50;29.87;;;26.90;;
944;SDS011;459;48.676;9.034;2022-08-19T06:13:41;35.60;;;31.77;;
944;SDS011;459;48.676;9.034;2022-08-19T06:16:06;35.60;;;31.67;;
944;SDS011;459;48.676;9.034;2022-08-19T06:18:32;33.47;;;30.07;;
944;SDS011;459;48.676;9.034;2022-08-19T06:20:58;35.10;;;31.57;;
944;SDS011;459;48.676;9.034;2022-08-19T06:23:23;34.23;;;30.73;;
944;SDS011;459;48.676;9.034;2022-08-19T06:25:48;33.50;;;30.07;;
944;SDS011;459;48.676;9.034;2022-08-19T06:28:13;33.77;;;30.33;;
944;SDS011;459;48.676;9.034;2022-08-19T06:30:39;39.00;;;35.30;;
944;SDS011;459;48.676;9.034;2022-08-19T06:33:04;35.37;;;31.97;;
944;SDS011;459;48.676;9.034;2022-08-19T06:35:29;34.30;;;30.87;;
944;SDS011;459;48.676;9.034;2022-08-19T06:37:55;32.57;;;29.47;;
944;SDS011;459;48.676;9.034;2022-08-19T06:40:20;33.80;;;30.40;;
944;SDS011;459;48.676;9.034;2022-08-19T06:42:45;35.00;;;31.23;;
944;SDS011;459;48.676;9.034;2022-08-19T06:45:10;32.23;;;28.80;;
944;SDS011;459;48.676;9.034;2022-08-19T06:47:35;33.30;;;29.80;;
944;SDS011;459;48.676;9.034;2022-08-19T06:50:01;31.70;;;28.40;;
944;SDS011;459;48.676;9.034;2022-08-19T06:52:34;30.20;;;27.00;;
944;SDS011;459;48.676;9.034;2022-08-19T06:55:00;33.57;;;30.10;;
944;SDS011;459;48.676;9.034;2022-08-19T06:57:26;31.97;;;28.83;;
944;SDS011;459;48.676;9.034;2022-08-19T06:59:51;31.90;;;28.80;;
944;SDS011;459;48.676;9.034;2022-08-19T07:02:17;32.30;;;29.40;;
944;SDS011;459;48.676;9.034;2022-08-19T07:04:42;31.13;;;28.20;;
944;SDS011;459;48.676;9.034;2022-08-19T07:07:08;29.17;;;26.43;;
944;SDS011;459;48.676;9.034;2022-08-19T07:09:35;29.53;;;26.63;;
944;SDS011;459;48.676;9.034;2022-08-19T07:12:02;31.00;;;27.80;;
944;SDS011;459;48.676;9.034;2022-08-19T07:14:27;29.63;;;26.80;;
944;SDS011;459;48.676;9.034;2022-08-19T07:16:53;28.00;;;25.20;;
944;SDS011;459;48.676;9.034;2022-08-19T07:19:23;28.90;;;25.93;;
944;SDS011;459;48.676;9.034;2022-08-19T07:21:49;27.07;;;24.40;;
944;SDS011;459;48.676;9.034;2022-08-19T07:24:17;27.80;;;25.00;;
944;SDS011;459;48.676;9.034;2022-08-19T07:26:43;26.73;;;24.10;;
944;SDS011;459;48.676;9.034;2022-08-19T07:29:10;28.60;;;25.50;;
944;SDS011;459;48.676;9.034;2022-08-19T07:31:35;29.37;;;26.57;;
944;SDS011;459;48.676;9.034;2022-08-19T07:34:02;28.70;;;25.77;;
944;SDS011;459;48.676;9.034;2022-08-19T07:36:29;27.60;;;24.70;;
944;SDS011;459;48.676;9.034;2022-08-19T07:38:57;27.27;;;24.77;;
944;SDS011;459;48.676;9.034;2022-08-19T07:41:23;26.70;;;24.00;;
944;SDS011;459;48.676;9.034;2022-08-19T07:43:49;30.07;;;26.87;;
944;SDS011;459;48.676;9.034;2022-08-19T07:46:14;28.53;;;25.37;;
944;SDS011;459;48.676;9.034;2022-08-19T07:48:44;26.80;;;23.90;;
944;SDS011;459;48.676;9.034;2022-08-19T07:51:13;27.93;;;25.10;;
944;SDS011;459;48.676;9.034;2022-08-19T07:53:38;30.70;;;27.90;;
944;SDS011;459;48.676;9.034;2022-08-19T07:56:04;29.40;;;24.37;;
944;SDS011;459;48.676;9.034;2022-08-19T07:58:33;25.83;;;23.00;;
944;SDS011;459;48.676;9.034;2022-08-19T08:00:59;28.33;;;22.87;;
944;SDS011;459;48.676;9.034;2022-08-19T08:03:24;25.63;;;23.07;;
944;SDS011;459;48.676;9.034;2022-08-19T08:06:10;25.37;;;22.37;;
944;SDS011;459;48.676;9.034;2022-08-19T08:08:54;21.50;;;19.40;;
944;SDS011;459;48.676;9.034;2022-08-19T08:11:42;28.03;;;23.50;;
944;SDS011;459;48.676;9.034;2022-08-19T08:14:08;22.23;;;19.27;;
944;SDS011;459;48.676;9.034;2022-08-19T08:16:37;25.83;;;23.37;;
944;SDS011;459;48.676;9.034;2022-08-19T08:19:05;28.40;;;25.60;;
944;SDS011;459;48.676;9.034;2022-08-19T08:21:31;25.37;;;22.73;;
944;SDS011;459;48.676;9.034;2022-08-19T08:23:57;26.57;;;24.07;;
944;SDS011;459;48.676;9.034;2022-08-19T08:26:22;24.90;;;22.30;;
944;SDS011;459;48.676;9.034;2022-08-19T08:28:47;26.57;;;23.77;;
944;SDS011;459;48.676;9.034;2022-08-19T08:31:13;19.37;;;15.70;;
944;SDS011;459;48.676;9.034;2022-08-19T08:33:39;29.47;;;26.90;;
944;SDS011;459;48.676;9.034;2022-08-19T08:36:06;31.07;;;28.20;;
944;SDS011;459;48.676;9.034;2022-08-19T08:38:32;27.70;;;25.10;;
944;SDS011;459;48.676;9.034;2022-08-19T08:40:59;26.17;;;23.57;;
944;SDS011;459;48.676;9.034;2022-08-19T08:43:35;25.93;;;23.23;;
944;SDS011;459;48.676;9.034;2022-08-19T08:46:07;29.13;;;26.23;;
944;SDS011;459;48.676;9.034;2022-08-19T08:48:38;26.37;;;23.87;;
944;SDS011;459;48.676;9.034;2022-08-19T08:51:05;28.33;;;25.43;;
944;SDS011;459;48.676;9.034;2022-08-19T08:53:32;29.20;;;26.30;;
944;SDS011;459;48.676;9.034;2022-08-19T08:56:00;27.87;;;25.33;;
944;SDS011;459;48.676;9.034;2022-08-19T08:58:27;25.10;;;22.70;;
944;SDS011;459;48.676;9.034;2022-08-19T09:00:54;26.00;;;23.43;;
944;SDS011;459;48.676;9.034;2022-08-19T09:03:20;31.20;;;27.90;;
944;SDS011;459;48.676;9.034;2022-08-19T09:05:56;31.00;;;28.10;;
944;SDS011;459;48.676;9.034;2022-08-19T09:08:27;23.87;;;21.33;;
944;SDS011;459;48.676;9.034;2022-08-19T09:10:56;21.00;;;18.53;;
944;SDS011;459;48.676;9.034;2022-08-19T09:13:35;20.30;;;18.13;;
944;SDS011;459;48.676;9.034;2022-08-19T09:18:42;23.20;;;20.90;;
944;SDS011;459;48.676;9.034;2022-08-19T09:21:07;21.57;;;19.10;;
944;SDS011;459;48.676;9.034;2022-08-19T09:23:33;22.37;;;20.13;;
944;SDS011;459;48.676;9.034;2022-08-19T09:25:58;23.67;;;21.37;;
944;SDS011;459;48.676;9.034;2022-08-19T09:28:24;25.23;;;22.93;;
944;SDS011;459;48.676;9.034;2022-08-19T09:30:49;25.83;;;22.53;;
944;SDS011;459;48.676;9.034;2022-08-19T09:33:16;22.63;;;20.53;;
944;SDS011;459;48.676;9.034;2022-08-19T09:35:41;26.37;;;24.07;;
944;SDS011;459;48.676;9.034;2022-08-19T09:38:06;22.60;;;20.60;;
944;SDS011;459;48.676;9.034;2022-08-19T09:40:31;23.30;;;21.13;;
944;SDS011;459;48.676;9.034;2022-08-19T09:42:56;23.90;;;21.80;;
944;SDS011;459;48.676;9.034;2022-08-19T09:45:22;25.27;;;22.40;;
944;SDS011;459;48.676;9.034;2022-08-19T09:47:50;23.30;;;21.07;;
944;SDS011;459;48.676;9.034;2022-08-19T09:50:17;24.67;;;22.47;;
944;SDS011;459;48.676;9.034;2022-08-19T09:52:43;23.57;;;21.47;;
944;SDS011;459;48.676;9.034;2022-08-19T09:55:09;23.77;;;21.70;;
944;SDS011;459;48.676;9.034;2022-08-19T09:57:35;22.77;;;20.77;;
944;SDS011;459;48.676;9.034;2022-08-19T10:00:00;25.43;;;23.33;;
944;SDS011;459;48.676;9.034;2022-08-19T10:02:25;23.30;;;21.10;;
944;SDS011;459;48.676;9.034;2022-08-19T10:04:51;26.70;;;22.73;;
944;SDS011;459;48.676;9.034;2022-08-19T10:07:34;24.30;;;22.00;;
944;SDS011;459;48.676;9.034;2022-08-19T10:10:00;24.37;;;22.03;;
944;SDS011;459;48.676;9.034;2022-08-19T10:12:25;24.80;;;22.50;;
944;SDS011;459;48.676;9.034;2022-08-19T10:14:50;24.05;;;21.75;;
944;SDS011;459;48.676;9.034;2022-08-19T10:17:18;23.70;;;21.50;;
944;SDS011;459;48.676;9.034;2022-08-19T10:19:43;22.50;;;20.10;;
944;SDS011;459;48.676;9.034;2022-08-19T10:22:08;22.83;;;20.90;;
944;SDS011;459;48.676;9.034;2022-08-19T10:24:39;24.47;;;22.13;;
944;SDS011;459;48.676;9.034;2022-08-19T10:27:04;22.10;;;19.93;;
944;SDS011;459;48.676;9.034;2022-08-19T10:29:30;23.83;;;21.33;;
944;SDS011;459;48.676;9.034;2022-08-19T10:31:56;20.97;;;19.00;;
944;SDS011;459;48.676;9.034;2022-08-19T10:34:22;21.47;;;18.87;;
944;SDS011;459;48.676;9.034;2022-08-19T10:36:48;19.93;;;18.07;;
944;SDS011;459;48.676;9.034;2022-08-19T10:39:13;19.23;;;17.53;;
944;SDS011;459;48.676;9.034;2022-08-19T10:41:38;19.90;;;18.07;;
944;SDS011;459;48.676;9.034;2022-08-19T10:44:05;21.93;;;19.70;;
944;SDS011;459;48.676;9.034;2022-08-19T10:46:31;17.50;;;16.00;;
944;SDS011;459;48.676;9.034;2022-08-19T10:48:57;17.43;;;15.77;;
944;SDS011;459;48.676;9.034;2022-08-19T10:51:23;16.40;;;14.80;;
944;SDS011;459;48.676;9.034;2022-08-19T10:54:06;16.87;;;15.30;;
944;SDS011;459;48.676;9.034;2022-08-19T10:56:32;16.23;;;14.73;;
944;SDS011;459;48.676;9.034;2022-08-19T10:59:16;16.13;;;14.53;;
944;SDS011;459;48.676;9.034;2022-08-19T11:01:42;15.90;;;14.50;;
944;SDS011;459;48.676;9.034;2022-08-19T11:04:08;15.03;;;13.73;;
944;SDS011;459;48.676;9.034;2022-08-19T11:06:38;14.50;;;13.27;;
944;SDS011;459;48.676;9.034;2022-08-19T11:09:04;15.00;;;13.50;;
944;SDS011;459;48.676;9.034;2022-08-19T11:11:29;14.40;;;13.23;;
944;SDS011;459;48.676;9.034;2022-08-19T11:13:55;14.83;;;13.53;;
944;SDS011;459;48.676;9.034;2022-08-19T11:16:21;14.33;;;13.10;;
944;SDS011;459;48.676;9.034;2022-08-19T11:18:51;16.30;;;14.80;;
944;SDS011;459;48.676;9.034;2022-08-19T11:21:24;17.30;;;15.67;;
944;SDS011;459;48.676;9.034;2022-08-19T11:23:51;16.70;;;15.00;;
944;SDS011;459;48.676;9.034;2022-08-19T11:26:17;16.20;;;14.77;;
944;SDS011;459;48.676;9.034;2022-08-19T11:28:43;16.83;;;15.20;;
944;SDS011;459;48.676;9.034;2022-08-19T11:31:14;15.00;;;13.60;;
944;SDS011;459;48.676;9.034;2022-08-19T11:33:39;15.43;;;14.03;;
944;SDS011;459;48.676;9.034;2022-08-19T11:36:05;15.97;;;14.47;;
944;SDS011;459;48.676;9.034;2022-08-19T11:38:30;16.37;;;14.83;;
944;SDS011;459;48.676;9.034;2022-08-19T11:40:56;14.97;;;13.53;;
944;SDS011;459;48.676;9.034;2022-08-19T11:43:21;16.87;;;15.30;;
944;SDS011;459;48.676;9.034;2022-08-19T11:45:46;14.10;;;12.90;;
944;SDS011;459;48.676;9.034;2022-08-19T11:48:13;13.47;;;12.37;;
944;SDS011;459;48.676;9.034;2022-08-19T11:50:38;14.63;;;13.40;;
944;SDS011;459;48.676;9.034;2022-08-19T11:53:06;13.60;;;12.40;;
944;SDS011;459;48.676;9.034;2022-08-19T11:55:32;13.73;;;12.50;;
944;SDS011;459;48.676;9.034;2022-08-19T11:57:57;15.03;;;13.63;;
944;SDS011;459;48.676;9.034;2022-08-19T12:00:22;14.63;;;12.93;;
944;SDS011;459;48.676;9.034;2022-08-19T12:02:47;13.33;;;12.13;;
944;SDS011;459;48.676;9.034;2022-08-19T12:05:13;13.57;;;12.47;;
944;SDS011;459;48.676;9.034;2022-08-19T12:07:38;13.40;;;12.10;;
944;SDS011;459;48.676;9.034;2022-08-19T12:10:04;12.53;;;11.43;;
944;SDS011;459;48.676;9.034;2022-08-19T12:12:29;12.57;;;11.47;;
944;SDS011;459;48.676;9.034;2022-08-19T12:14:55;13.27;;;12.07;;
944;SDS011;459;48.676;9.034;2022-08-19T12:17:24;10.67;;;9.63;;
944;SDS011;459;48.676;9.034;2022-08-19T12:19:49;11.30;;;10.40;;
944;SDS011;459;48.676;9.034;2022-08-19T12:22:14;10.50;;;9.70;;
944;SDS011;459;48.676;9.034;2022-08-19T12:24:39;10.50;;;9.60;;
944;SDS011;459;48.676;9.034;2022-08-19T12:27:05;10.93;;;10.00;;
944;SDS011;459;48.676;9.034;2022-08-19T12:29:30;11.23;;;9.40;;
944;SDS011;459;48.676;9.034;2022-08-19T12:31:56;10.97;;;9.90;;
944;SDS011;459;48.676;9.034;2022-08-19T12:34:27;11.33;;;9.87;;
944;SDS011;459;48.676;9.034;2022-08-19T12:36:55;9.90;;;9.10;;
944;SDS011;459;48.676;9.034;2022-08-19T12:39:20;10.93;;;10.00;;
944;SDS011;459;48.676;9.034;2022-08-19T12:41:45;10.10;;;9.37;;
944;SDS011;459;48.676;9.034;2022-08-19T12:44:11;9.50;;;8.70;;
944;SDS011;459;48.676;9.034;2022-08-19T12:46:37;10.50;;;9.60;;
944;SDS011;459;48.676;9.034;2022-08-19T12:49:02;10.60;;;9.70;;
944;SDS011;459;48.676;9.034;2022-08-19T12:51:28;10.13;;;9.27;;
944;SDS011;459;48.676;9.034;2022-08-19T12:53:53;10.33;;;9.43;;
944;SDS011;459;48.676;9.034;2022-08-19T12:56:18;9.40;;;8.67;;
944;SDS011;459;48.676;9.034;2022-08-19T12:58:44;10.90;;;10.00;;
944;SDS011;459;48.676;9.034;2022-08-19T13:01:10;9.43;;;8.53;;
944;SDS011;459;48.676;9.034;2022-08-19T13:03:36;10.33;;;9.47;;
944;SDS011;459;48.676;9.034;2022-08-19T13:06:02;10.77;;;9.80;;
944;SDS011;459;48.676;9.034;2022-08-19T13:08:27;10.77;;;9.33;;
944;SDS011;459;48.676;9.034;2022-08-19T13:10:52;10.70;;;9.80;;
944;SDS011;459;48.676;9.034;2022-08-19T13:13:18;9.87;;;8.97;;
944;SDS011;459;48.676;9.034;2022-08-19T13:15:43;10.10;;;9.40;;
944;SDS011;459;48.676;9.034;2022-08-19T13:18:10;11.17;;;10.03;;
944;SDS011;459;48.676;9.034;2022-08-19T13:20:36;9.97;;;9.10;;
944;SDS011;459;48.676;9.034;2022-08-19T13:23:02;10.43;;;9.40;;
944;SDS011;459;48.676;9.034;2022-08-19T13:25:27;9.67;;;8.87;;
944;SDS011;459;48.676;9.034;2022-08-19T13:27:53;10.07;;;9.30;;
944;SDS011;459;48.676;9.034;2022-08-19T13:30:20;9.60;;;8.90;;
944;SDS011;459;48.676;9.034;2022-08-19T13:33:04;9.73;;;9.03;;
944;SDS011;459;48.676;9.034;2022-08-19T13:35:39;9.93;;;9.23;;
944;SDS011;459;48.676;9.034;2022-08-19T13:38:05;16.23;;;15.13;;
944;SDS011;459;48.676;9.034;2022-08-19T13:40:31;9.80;;;9.10;;
944;SDS011;459;48.676;9.034;2022-08-19T13:42:59;9.17;;;8.47;;
944;SDS011;459;48.676;9.034;2022-08-19T13:45:25;10.20;;;9.47;;
944;SDS011;459;48.676;9.034;2022-08-19T13:47:52;10.17;;;9.40;;
944;SDS011;459;48.676;9.034;2022-08-19T13:50:19;10.90;;;10.20;;
944;SDS011;459;48.676;9.034;2022-08-19T13:52:45;10.30;;;9.60;;
944;SDS011;459;48.676;9.034;2022-08-19T13:55:11;11.07;;;10.17;;
944;SDS011;459;48.676;9.034;2022-08-19T13:57:36;12.47;;;11.30;;
944;SDS011;459;48.676;9.034;2022-08-19T14:00:04;13.10;;;12.10;;
944;SDS011;459;48.676;9.034;2022-08-19T14:02:29;13.90;;;12.70;;
944;SDS011;459;48.676;9.034;2022-08-19T14:04:54;12.90;;;11.80;;
944;SDS011;459;48.676;9.034;2022-08-19T14:07:19;12.80;;;11.90;;
944;SDS011;459;48.676;9.034;2022-08-19T14:09:48;13.07;;;11.87;;
944;SDS011;459;48.676;9.034;2022-08-19T14:12:13;16.03;;;14.60;;
944;SDS011;459;48.676;9.034;2022-08-19T14:14:38;20.23;;;18.60;;
944;SDS011;459;48.676;9.034;2022-08-19T14:17:07;20.43;;;18.73;;
944;SDS011;459;48.676;9.034;2022-08-19T14:19:32;22.33;;;20.40;;
944;SDS011;459;48.676;9.034;2022-08-19T14:21:57;22.07;;;20.33;;
944;SDS011;459;48.676;9.034;2022-08-19T14:24:22;22.53;;;20.40;;
944;SDS011;459;48.676;9.034;2022-08-19T14:26:47;24.67;;;22.50;;
944;SDS011;459;48.676;9.034;2022-08-19T14:29:13;22.70;;;20.90;;
944;SDS011;459;48.676;9.034;2022-08-19T14:31:38;22.77;;;20.87;;
944;SDS011;459;48.676;9.034;2022-08-19T14:34:04;23.40;;;21.43;;
944;SDS011;459;48.676;9.034;2022-08-19T14:36:29;23.13;;;21.23;;
944;SDS011;459;48.676;9.034;2022-08-19T14:38:57;20.53;;;18.60;;
944;SDS011;459;48.676;9.034;2022-08-19T14:41:22;19.43;;;17.87;;
944;SDS011;459;48.676;9.034;2022-08-19T14:43:49;22.10;;;20.20;;
944;SDS011;459;48.676;9.034;2022-08-19T14:46:16;15.90;;;14.70;;
944;SDS011;459;48.676;9.034;2022-08-19T14:48:41;19.27;;;17.67;;
944;SDS011;459;48.676;9.034;2022-08-19T14:51:06;19.23;;;17.63;;
944;SDS011;459;48.676;9.034;2022-08-19T14:53:32;18.47;;;17.00;;
944;SDS011;459;48.676;9.034;2022-08-19T14:55:58;22.23;;;20.43;;
944;SDS011;459;48.676;9.034;2022-08-19T14:58:23;24.17;;;21.97;;
944;SDS011;459;48.676;9.034;2022-08-19T15:00:48;23.70;;;21.43;;
944;SDS011;459;48.676;9.034;2022-08-19T15:03:14;22.00;;;20.10;;
944;SDS011;459;48.676;9.034;2022-08-19T15:05:39;19.47;;;17.97;;
944;SDS011;459;48.676;9.034;2022-08-19T15:08:04;21.33;;;19.53;;
944;SDS011;459;48.676;9.034;2022-08-19T15:10:29;20.37;;;18.67;;
944;SDS011;459;48.676;9.034;2022-08-19T15:12:55;17.60;;;16.20;;
944;SDS011;459;48.676;9.034;2022-08-19T15:15:21;19.73;;;17.93;;
944;SDS011;459;48.676;9.034;2022-08-19T15:17:47;12.90;;;11.73;;
944;SDS011;459;48.676;9.034;2022-08-19T15:20:14;16.23;;;15.00;;
944;SDS011;459;48.676;9.034;2022-08-19T15:22:40;14.73;;;13.53;;
944;SDS011;459;48.676;9.034;2022-08-19T15:25:07;12.93;;;11.93;;